createdAt,value
2018-01-10T00:01:12.076Z,9.12
2018-01-10T00:03:40.815Z,9.53
2018-01-10T00:06:09.210Z,9.63
2018-01-10T00:08:37.553Z,9.35
2018-01-10T00:11:05.909Z,9.00
2018-01-10T00:13:34.758Z,9.23
2018-01-10T00:16:03.120Z,9.03
2018-01-10T00:18:31.477Z,8.95
2018-01-10T00:20:59.829Z,8.99
2018-01-10T00:23:28.673Z,8.48
2018-01-10T00:25:57.075Z,8.50
2018-01-10T00:28:25.440Z,8.66
2018-01-10T00:30:53.808Z,8.32
2018-01-10T00:33:22.196Z,8.53
2018-01-10T00:35:50.555Z,8.41
2018-01-10T00:38:18.912Z,8.26
2018-01-10T00:40:47.288Z,8.60
2018-01-10T00:43:15.704Z,8.91
2018-01-10T00:45:44.060Z,8.80
2018-01-10T00:48:12.413Z,8.90
2018-01-10T00:50:41.248Z,8.98
2018-01-10T00:53:09.679Z,8.68
2018-01-10T00:55:38.519Z,8.71
2018-01-10T00:58:06.858Z,8.71
2018-01-10T01:00:35.383Z,8.60
2018-01-10T01:03:03.728Z,8.60
2018-01-10T01:05:32.095Z,8.52
2018-01-10T01:08:00.452Z,8.46
2018-01-10T01:10:29.308Z,8.39
2018-01-10T01:12:57.651Z,8.13
2018-01-10T01:15:26.000Z,8.36
2018-01-10T01:17:54.748Z,8.70
2018-01-10T01:20:23.227Z,8.77
2018-01-10T01:22:51.599Z,8.23
2018-01-10T01:25:19.980Z,8.57
2018-01-10T01:27:49.028Z,8.74
2018-01-10T01:30:17.884Z,8.88
2018-01-10T01:32:46.252Z,9.16
2018-01-10T01:35:14.733Z,9.22
2018-01-10T01:37:43.108Z,9.02
2018-01-10T01:40:11.459Z,8.88
2018-01-10T01:42:39.976Z,8.69
2018-01-10T01:45:08.360Z,8.70
2018-01-10T01:47:36.733Z,8.56
2018-01-10T01:50:05.099Z,8.46
2018-01-10T01:52:33.443Z,8.54
2018-01-10T01:55:01.820Z,8.42
2018-01-10T01:57:30.172Z,7.89
2018-01-10T01:59:58.526Z,8.05
2018-01-10T02:02:26.892Z,8.16
2018-01-10T02:04:55.275Z,7.79
2018-01-10T02:07:23.629Z,8.27
2018-01-10T02:09:52.000Z,8.10
2018-01-10T02:12:20.351Z,8.32
2018-01-10T02:14:49.093Z,8.26
2018-01-10T02:17:17.469Z,8.51
2018-01-10T02:19:45.856Z,8.26
2018-01-10T02:22:14.205Z,8.23
2018-01-10T02:24:42.716Z,8.57
2018-01-10T02:27:11.080Z,8.40
2018-01-10T02:29:39.470Z,8.57
2018-01-10T02:32:07.826Z,8.71
2018-01-10T02:34:36.167Z,8.58
2018-01-10T02:37:04.934Z,8.46
2018-01-10T02:39:33.271Z,8.46
2018-01-10T02:42:01.651Z,8.45
2018-01-10T02:44:30.016Z,8.03
2018-01-10T02:46:58.382Z,8.27
2018-01-10T02:49:27.259Z,8.33
2018-01-10T02:51:55.708Z,8.53
2018-01-10T02:54:24.076Z,8.37
2018-01-10T02:56:52.471Z,8.59
2018-01-10T02:59:20.836Z,8.44
2018-01-10T03:01:49.204Z,8.24
2018-01-10T03:04:17.552Z,8.27
2018-01-10T03:06:46.384Z,8.13
2018-01-10T03:09:14.738Z,7.97
2018-01-10T03:11:43.144Z,7.73
2018-01-10T03:14:11.526Z,7.85
2018-01-10T03:16:39.903Z,7.93
2018-01-10T03:19:08.286Z,7.75
2018-01-10T03:21:36.677Z,7.76
2018-01-10T03:24:05.041Z,8.00
2018-01-10T03:26:33.412Z,8.20
2018-01-10T03:29:01.800Z,8.47
2018-01-10T03:31:30.249Z,8.21
2018-01-10T03:33:58.592Z,8.29
2018-01-10T03:36:27.351Z,8.36
2018-01-10T03:38:55.789Z,8.46
2018-01-10T03:41:24.160Z,8.49
2018-01-10T03:43:52.524Z,8.07
2018-01-10T03:46:21.274Z,8.13
2018-01-10T03:48:49.981Z,8.03
2018-01-10T03:51:18.349Z,8.01
2018-01-10T03:53:46.820Z,8.27
2018-01-10T03:56:15.198Z,8.32
2018-01-10T03:58:43.556Z,8.48
2018-01-10T04:01:11.908Z,8.45
2018-01-10T04:03:40.272Z,8.37
2018-01-10T04:06:09.103Z,8.63
2018-01-10T04:08:37.476Z,8.69
2018-01-10T04:11:05.819Z,8.75
2018-01-10T04:13:34.656Z,9.03
2018-01-10T04:16:03.140Z,9.31
2018-01-10T04:18:31.530Z,9.04
2018-01-10T04:21:00.012Z,9.13
2018-01-10T04:23:28.362Z,8.98
2018-01-10T04:25:56.725Z,9.08
2018-01-10T04:28:25.092Z,9.20
2018-01-10T04:30:53.866Z,9.25
2018-01-10T04:33:22.712Z,9.18
2018-01-10T04:35:51.087Z,9.20
2018-01-10T04:38:19.467Z,8.77
2018-01-10T04:40:47.853Z,9.17
2018-01-10T04:43:16.251Z,8.84
2018-01-10T04:45:44.717Z,8.75
2018-01-10T04:48:13.103Z,8.49
2018-01-10T04:50:41.464Z,8.07
2018-01-10T04:53:09.907Z,8.13
2018-01-10T04:55:38.267Z,8.29
2018-01-10T04:58:07.040Z,8.53
2018-01-10T05:00:35.400Z,8.72
2018-01-10T05:03:03.744Z,8.63
2018-01-10T05:05:32.112Z,9.00
2018-01-10T05:08:00.467Z,8.79
2018-01-10T05:10:29.321Z,8.94
2018-01-10T05:12:57.688Z,8.61
2018-01-10T05:15:26.049Z,8.52
2018-01-10T05:17:54.462Z,8.72
2018-01-10T05:20:22.846Z,8.96
2018-01-10T05:22:51.212Z,9.35
2018-01-10T05:25:19.572Z,8.89
2018-01-10T05:27:47.929Z,9.27
2018-01-10T05:30:16.287Z,9.43
2018-01-10T05:32:45.140Z,9.66
2018-01-10T05:35:13.503Z,9.72
2018-01-10T05:37:41.871Z,9.76
2018-01-10T05:40:10.228Z,9.76
2018-01-10T05:42:38.623Z,9.45
2018-01-10T05:45:06.988Z,9.20
2018-01-10T05:47:35.483Z,9.37
2018-01-10T05:50:03.840Z,9.15
2018-01-10T05:52:32.610Z,8.87
2018-01-10T05:55:00.982Z,8.88
2018-01-10T05:57:29.439Z,8.92
2018-01-10T05:59:57.818Z,8.96
2018-01-10T06:02:26.184Z,8.89
2018-01-10T06:04:54.544Z,8.72
2018-01-10T06:07:22.917Z,8.44
2018-01-10T06:09:51.327Z,8.47
2018-01-10T06:12:19.705Z,8.59
2018-01-10T06:14:48.087Z,8.58
2018-01-10T06:17:16.447Z,8.33
2018-01-10T06:19:44.845Z,8.31
2018-01-10T06:22:13.207Z,8.25
2018-01-10T06:24:41.602Z,8.03
2018-01-10T06:27:09.965Z,8.52
2018-01-10T06:29:38.328Z,8.74
2018-01-10T06:32:06.742Z,9.03
2018-01-10T06:34:35.100Z,9.15
2018-01-10T06:37:03.504Z,8.38
2018-01-10T06:39:31.879Z,7.83
2018-01-10T06:42:00.237Z,7.28
2018-01-10T06:44:28.644Z,7.56
2018-01-10T06:46:57.108Z,8.07
2018-01-10T06:49:25.476Z,8.31
2018-01-10T06:51:53.967Z,8.27
2018-01-10T06:54:22.354Z,8.17
2018-01-10T06:56:50.927Z,8.33
2018-01-10T06:59:19.288Z,8.57
2018-01-10T07:01:47.666Z,8.81
2018-01-10T07:04:16.039Z,8.59
2018-01-10T07:06:44.464Z,8.54
2018-01-10T07:09:12.914Z,8.51
2018-01-10T07:11:41.350Z,8.74
2018-01-10T07:14:10.116Z,8.91
2018-01-10T07:16:38.639Z,8.85
2018-01-10T07:19:07.671Z,8.75
2018-01-10T07:21:36.045Z,9.12
2018-01-10T07:24:04.414Z,8.95
2018-01-10T07:26:32.810Z,9.35
2018-01-10T07:29:01.186Z,9.46
2018-01-10T07:31:29.643Z,9.55
2018-01-10T07:33:58.032Z,9.40
2018-01-10T07:36:26.432Z,9.37
2018-01-10T07:38:54.885Z,9.57
2018-01-10T07:41:23.253Z,9.47
2018-01-10T07:43:51.684Z,9.38
2018-01-10T07:46:20.152Z,9.61
2018-01-10T07:51:16.168Z,9.52
2018-01-10T07:53:44.544Z,9.82
2018-01-10T07:56:12.943Z,9.82
2018-01-10T07:58:41.303Z,9.47
2018-01-10T08:01:09.699Z,9.41
2018-01-10T08:03:38.087Z,9.07
2018-01-10T08:06:06.498Z,8.53
2018-01-10T08:08:35.353Z,8.04
2018-01-10T08:11:03.756Z,7.69
2018-01-10T08:13:32.107Z,7.92
2018-01-10T08:16:00.484Z,8.20
2018-01-10T08:18:28.863Z,7.94
2018-01-10T08:20:57.241Z,7.79
2018-01-10T08:23:25.603Z,7.81
2018-01-10T08:25:54.012Z,7.45
2018-01-10T08:28:22.470Z,7.70
2018-01-10T08:30:50.841Z,7.79
2018-01-10T08:33:19.232Z,7.64
2018-01-10T08:35:48.124Z,7.93
2018-01-10T08:38:16.504Z,8.10
2018-01-10T08:40:45.192Z,8.07
2018-01-10T08:43:13.707Z,8.12
2018-01-10T08:45:42.103Z,8.48
2018-01-10T08:48:10.932Z,8.16
2018-01-10T08:50:39.277Z,8.09
2018-01-10T08:53:08.068Z,7.74
2018-01-10T08:55:36.904Z,8.00
2018-01-10T08:58:05.272Z,8.31
2018-01-10T09:00:33.656Z,8.35
2018-01-10T09:03:02.067Z,8.41
2018-01-10T09:05:30.474Z,8.74
2018-01-10T09:07:59.235Z,8.87
2018-01-10T09:10:27.608Z,9.29
2018-01-10T09:12:56.041Z,9.25
2018-01-10T09:15:24.443Z,9.01
2018-01-10T09:17:52.823Z,9.37
2018-01-10T09:20:21.172Z,9.32
2018-01-10T09:22:49.553Z,9.60
2018-01-10T09:25:17.971Z,9.78
2018-01-10T09:27:46.952Z,10.06
2018-01-10T09:30:15.378Z,10.24
2018-01-10T09:32:44.208Z,10.48
2018-01-10T09:35:12.592Z,10.32
2018-01-10T09:37:40.974Z,10.44
2018-01-10T09:40:09.330Z,10.80
2018-01-10T09:42:37.711Z,10.77
2018-01-10T09:45:06.090Z,10.39
2018-01-10T09:47:34.473Z,10.30
2018-01-10T09:50:02.820Z,10.17
2018-01-10T09:52:31.574Z,10.65
2018-01-10T09:54:59.945Z,10.91
2018-01-10T09:57:28.328Z,10.79
2018-01-10T09:59:56.800Z,10.21
2018-01-10T10:02:25.196Z,10.24
2018-01-10T10:04:53.557Z,10.40
2018-01-10T10:07:21.919Z,10.60
2018-01-10T10:09:50.280Z,10.45
2018-01-10T10:12:18.762Z,10.67
2018-01-10T10:14:47.104Z,10.79
2018-01-10T10:17:15.659Z,10.59
2018-01-10T10:19:44.145Z,10.65
2018-01-10T10:22:12.572Z,10.98
2018-01-10T10:24:41.352Z,10.93
2018-01-10T10:27:09.705Z,11.12
2018-01-10T10:29:38.092Z,11.22
2018-01-10T10:32:06.461Z,11.35
2018-01-10T10:34:34.822Z,11.59
2018-01-10T10:37:03.197Z,12.06
2018-01-10T10:39:31.637Z,12.10
2018-01-10T10:42:00.049Z,12.43
2018-01-10T10:44:28.502Z,12.45
2018-01-10T10:46:56.860Z,12.74
2018-01-10T10:49:25.656Z,12.90
2018-01-10T10:51:54.091Z,12.89
2018-01-10T10:54:22.467Z,12.90
2018-01-10T10:56:50.819Z,12.98
2018-01-10T10:59:19.209Z,13.26
2018-01-10T11:01:47.581Z,13.12
2018-01-10T11:04:15.940Z,13.35
2018-01-10T11:06:44.303Z,13.20
2018-01-10T11:09:13.169Z,12.88
2018-01-10T11:11:41.951Z,12.52
2018-01-10T11:14:10.316Z,12.11
2018-01-10T11:16:38.757Z,11.99
2018-01-10T11:19:07.383Z,11.79
2018-01-10T11:21:35.750Z,11.95
2018-01-10T11:24:04.115Z,11.96
2018-01-10T11:26:32.470Z,12.03
2018-01-10T11:29:00.822Z,11.79
2018-01-10T11:31:29.183Z,12.10
2018-01-10T11:33:57.591Z,11.69
2018-01-10T11:36:26.355Z,12.34
2018-01-10T11:38:54.712Z,12.46
2018-01-10T11:41:23.093Z,12.50
2018-01-10T11:43:51.542Z,12.30
2018-01-10T11:46:20.031Z,12.64
2018-01-10T11:48:48.433Z,12.66
2018-01-10T11:51:16.818Z,12.84
2018-01-10T11:53:45.208Z,12.98
2018-01-10T11:56:13.577Z,13.10
2018-01-10T11:58:41.990Z,13.07
2018-01-10T12:01:10.765Z,12.91
2018-01-10T12:03:39.120Z,12.99
2018-01-10T12:06:07.489Z,13.02
2018-01-10T12:08:35.867Z,13.14
2018-01-10T12:11:04.352Z,13.51
2018-01-10T12:13:32.737Z,13.48
2018-01-10T12:16:01.375Z,13.63
2018-01-10T12:18:29.883Z,13.42
2018-01-10T12:20:58.286Z,13.11
2018-01-10T12:23:26.740Z,12.86
2018-01-10T12:25:55.118Z,13.19
2018-01-10T12:28:23.530Z,13.43
2018-01-10T12:30:51.905Z,13.58
2018-01-10T12:33:20.293Z,13.72
2018-01-10T12:35:48.660Z,13.77
2018-01-10T12:38:17.133Z,13.56
2018-01-10T12:40:45.485Z,13.36
2018-01-10T12:43:13.843Z,13.37
2018-01-10T12:45:42.274Z,12.97
2018-01-10T12:48:12.235Z,12.45
2018-01-10T12:50:40.720Z,12.88
2018-01-10T12:53:09.552Z,12.57
2018-01-10T12:55:37.910Z,12.22
2018-01-10T12:58:06.295Z,12.51
2018-01-10T13:00:34.710Z,12.35
2018-01-10T13:03:03.088Z,11.99
2018-01-10T13:05:31.438Z,11.76
2018-01-10T13:07:59.855Z,11.43
2018-01-10T13:10:28.283Z,11.64
2018-01-10T13:12:56.693Z,12.01
2018-01-10T13:15:25.086Z,11.92
2018-01-10T13:17:53.650Z,11.72
2018-01-10T13:20:22.036Z,11.40
2018-01-10T13:22:51.531Z,11.36
2018-01-10T13:25:20.635Z,11.48
2018-01-10T13:27:49.019Z,11.73
2018-01-10T13:30:17.391Z,11.75
2018-01-10T13:32:45.763Z,11.33
2018-01-10T13:35:14.129Z,11.13
2018-01-10T13:37:42.485Z,11.18
2018-01-10T13:40:10.851Z,11.11
2018-01-10T13:42:39.615Z,10.99
2018-01-10T13:45:07.979Z,11.43
2018-01-10T13:47:36.372Z,11.45
2018-01-10T13:50:04.807Z,11.22
2018-01-10T13:52:33.197Z,10.90
2018-01-10T13:55:01.567Z,10.68
2018-01-10T13:57:29.955Z,10.66
2018-01-10T13:59:58.372Z,10.82
2018-01-10T14:02:26.740Z,11.09
2018-01-10T14:04:55.118Z,11.35
2018-01-10T14:07:23.558Z,11.46
2018-01-10T14:09:51.976Z,11.42
2018-01-10T14:12:20.340Z,11.52
2018-01-10T14:14:48.747Z,11.26
2018-01-10T14:17:17.127Z,11.39
2018-01-10T14:19:45.505Z,11.54
2018-01-10T14:22:13.872Z,11.50
2018-01-10T14:24:42.474Z,11.00
2018-01-10T14:27:11.228Z,11.28
2018-01-10T14:29:39.624Z,11.21
2018-01-10T14:32:07.992Z,10.76
2018-01-10T14:34:36.344Z,10.97
2018-01-10T14:37:04.720Z,10.83
2018-01-10T14:39:33.122Z,10.77
2018-01-10T14:42:01.492Z,10.41
2018-01-10T14:44:29.901Z,10.43
2018-01-10T14:46:58.280Z,10.52
2018-01-10T14:49:26.740Z,10.83
2018-01-10T14:51:55.106Z,10.81
2018-01-10T14:54:23.479Z,10.92
2018-01-10T14:56:51.836Z,11.14
2018-01-10T14:59:20.191Z,11.20
2018-01-10T15:01:48.712Z,11.18
2018-01-10T15:04:17.063Z,11.19
2018-01-10T15:06:45.849Z,11.06
2018-01-10T15:09:14.703Z,11.09
2018-01-10T15:11:43.074Z,11.09
2018-01-10T15:14:11.453Z,11.16
2018-01-10T15:16:39.816Z,11.21
2018-01-10T15:19:08.193Z,10.97
2018-01-10T15:21:36.559Z,10.65
2018-01-10T15:24:04.903Z,10.62
2018-01-10T15:26:33.784Z,10.58
2018-01-10T15:29:02.233Z,10.61
2018-01-10T15:31:30.859Z,10.68
2018-01-10T15:33:59.621Z,10.84
2018-01-10T15:36:28.000Z,10.66
2018-01-10T15:38:56.472Z,10.58
2018-01-10T15:41:24.835Z,10.59
2018-01-10T15:43:53.284Z,10.75
2018-01-10T15:46:21.677Z,10.74
2018-01-10T15:48:50.088Z,10.72
2018-01-10T15:51:18.448Z,10.54
2018-01-10T15:53:46.808Z,10.48
2018-01-10T15:56:15.232Z,10.60
2018-01-10T15:58:43.709Z,10.47
2018-01-10T16:01:12.060Z,10.64
2018-01-10T16:03:40.435Z,10.70
2018-01-10T16:06:08.838Z,10.69
2018-01-10T16:08:37.205Z,10.71
2018-01-10T16:11:05.594Z,10.80
2018-01-10T16:13:33.980Z,10.45
2018-01-10T16:16:02.360Z,10.33
2018-01-10T16:18:30.707Z,10.36
2018-01-10T16:20:59.099Z,10.48
2018-01-10T16:23:27.482Z,10.63
2018-01-10T16:25:55.860Z,10.42
2018-01-10T16:28:24.249Z,10.53
2018-01-10T16:30:52.607Z,10.61
2018-01-10T16:33:20.999Z,10.43
2018-01-10T16:35:49.360Z,10.52
2018-01-10T16:38:17.756Z,10.73
2018-01-10T16:40:46.165Z,10.67
2018-01-10T16:43:14.524Z,10.50
2018-01-10T16:45:42.913Z,10.48
2018-01-10T16:48:11.292Z,10.39
2018-01-10T16:50:39.647Z,10.51
2018-01-10T16:53:08.023Z,10.64
2018-01-10T16:55:36.408Z,10.57
2018-01-10T16:58:04.834Z,10.62
2018-01-10T17:00:33.592Z,10.65
2018-01-10T17:03:01.949Z,10.73
2018-01-10T17:05:30.303Z,10.56
2018-01-10T17:07:58.775Z,10.41
2018-01-10T17:10:27.215Z,10.54
2018-01-10T17:12:55.562Z,10.73
2018-01-10T17:15:24.031Z,10.82
2018-01-10T17:17:52.380Z,10.68
2018-01-10T17:20:21.168Z,10.54
2018-01-10T17:22:49.924Z,10.69
2018-01-10T17:25:18.287Z,10.81
2018-01-10T17:27:46.701Z,10.69
2018-01-10T17:30:15.140Z,10.63
2018-01-10T17:32:43.528Z,10.47
2018-01-10T17:35:11.905Z,10.66
2018-01-10T17:37:40.285Z,10.63
2018-01-10T17:40:08.648Z,10.78
2018-01-10T17:42:37.005Z,10.56
2018-01-10T17:45:05.387Z,10.37
2018-01-10T17:47:33.757Z,10.34
2018-01-10T17:50:02.535Z,10.46
2018-01-10T17:52:31.377Z,10.33
2018-01-10T17:54:59.738Z,10.38
2018-01-10T17:57:28.170Z,10.60
2018-01-10T17:59:56.503Z,10.48
2018-01-10T18:02:24.871Z,10.50
2018-01-10T18:04:53.244Z,10.66
2018-01-10T18:07:21.639Z,10.46
2018-01-10T18:09:50.011Z,10.30
2018-01-10T18:12:18.521Z,10.31
2018-01-10T18:14:47.098Z,10.20
2018-01-10T18:17:15.462Z,10.04
2018-01-10T18:19:43.822Z,10.21
2018-01-10T18:22:12.223Z,10.34
2018-01-10T18:24:40.584Z,10.56
2018-01-10T18:27:08.953Z,10.60
2018-01-10T18:29:37.360Z,10.43
2018-01-10T18:32:05.756Z,10.52
2018-01-10T18:34:34.100Z,10.71
2018-01-10T18:37:02.557Z,10.75
2018-01-10T18:39:31.336Z,10.76
2018-01-10T18:42:00.185Z,10.82
2018-01-10T18:44:28.554Z,10.68
2018-01-10T18:46:56.912Z,10.50
2018-01-10T18:49:25.268Z,10.09
2018-01-10T18:51:54.952Z,10.15
2018-01-10T18:54:23.299Z,9.90
2018-01-10T18:56:51.724Z,10.01
2018-01-10T18:59:20.551Z,10.13
2018-01-10T19:01:48.927Z,9.87
2018-01-10T19:04:17.377Z,9.89
2018-01-10T19:06:46.223Z,10.09
2018-01-10T19:09:14.698Z,10.31
2018-01-10T19:11:43.144Z,10.46
2018-01-10T19:14:11.568Z,10.42
2018-01-10T19:16:39.973Z,10.46
2018-01-10T19:19:08.321Z,10.35
2018-01-10T19:21:36.817Z,10.17
2018-01-10T19:24:05.185Z,10.24
2018-01-10T19:26:33.613Z,9.91
2018-01-10T19:29:02.371Z,10.00
2018-01-10T19:31:31.407Z,9.94
2018-01-10T19:34:00.002Z,10.03
2018-01-10T19:36:28.394Z,9.71
2018-01-10T19:38:56.851Z,9.96
2018-01-10T19:41:25.216Z,9.70
2018-01-10T19:43:53.964Z,9.44
2018-01-10T19:46:22.440Z,9.50
2018-01-10T19:48:51.008Z,9.35
2018-01-10T19:51:19.370Z,9.51
2018-01-10T19:53:47.730Z,9.73
2018-01-10T19:56:16.107Z,9.86
2018-01-10T19:58:44.903Z,9.79
2018-01-10T20:01:13.313Z,10.02
2018-01-10T20:03:41.712Z,9.62
2018-01-10T20:06:10.069Z,9.30
2018-01-10T20:08:38.457Z,9.65
2018-01-10T20:11:06.848Z,9.98
2018-01-10T20:13:35.207Z,9.86
2018-01-10T20:16:03.701Z,10.08
2018-01-10T20:18:32.193Z,9.99
2018-01-10T20:21:00.623Z,10.27
2018-01-10T20:23:29.037Z,10.38
2018-01-10T20:25:57.431Z,10.30
2018-01-10T20:28:25.792Z,10.36
2018-01-10T20:30:54.174Z,10.33
2018-01-10T20:33:22.521Z,10.27
2018-01-10T20:35:50.904Z,10.11
2018-01-10T20:38:19.259Z,10.19
2018-01-10T20:40:48.003Z,10.27
2018-01-10T20:43:16.395Z,10.27
2018-01-10T20:45:44.756Z,10.10
2018-01-10T20:48:13.244Z,10.20
2018-01-10T20:50:41.646Z,10.07
2018-01-10T20:53:10.415Z,10.35
2018-01-10T20:55:38.884Z,9.99
2018-01-10T20:58:07.228Z,10.12
2018-01-10T21:00:35.605Z,10.31
2018-01-10T21:03:04.026Z,9.85
2018-01-10T21:05:32.474Z,9.90
2018-01-10T21:08:00.848Z,10.13
2018-01-10T21:10:29.210Z,10.33
2018-01-10T21:12:57.980Z,10.29
2018-01-10T21:15:26.735Z,10.26
2018-01-10T21:17:55.124Z,10.03
2018-01-10T21:20:23.495Z,9.92
2018-01-10T21:22:51.880Z,10.25
2018-01-10T21:25:20.350Z,10.13
2018-01-10T21:27:48.711Z,10.32
2018-01-10T21:30:17.059Z,10.36
2018-01-10T21:32:45.866Z,10.42
2018-01-10T21:35:14.869Z,10.22
2018-01-10T21:37:43.264Z,10.55
2018-01-10T21:40:11.608Z,10.52
2018-01-10T21:42:39.970Z,10.35
2018-01-10T21:45:08.927Z,10.30
2018-01-10T21:47:37.287Z,10.52
2018-01-10T21:50:05.774Z,10.62
2018-01-10T21:52:34.156Z,10.42
2018-01-10T21:55:02.520Z,10.46
2018-01-10T21:57:30.891Z,10.55
2018-01-10T21:59:59.246Z,10.52
2018-01-10T22:02:28.066Z,10.15
2018-01-10T22:04:56.384Z,10.26
2018-01-10T22:07:24.770Z,10.20
2018-01-10T22:09:53.290Z,10.21
2018-01-10T22:12:22.265Z,10.17
2018-01-10T22:14:50.634Z,10.09
2018-01-10T22:17:19.480Z,10.25
2018-01-10T22:19:47.836Z,10.47
2018-01-10T22:22:16.225Z,10.36
2018-01-10T22:24:44.619Z,10.28
2018-01-10T22:27:13.013Z,10.41
2018-01-10T22:29:41.446Z,10.00
2018-01-10T22:32:09.796Z,10.06
2018-01-10T22:34:38.559Z,10.17
2018-01-10T22:37:06.921Z,10.05
2018-01-10T22:39:35.296Z,10.20
2018-01-10T22:42:03.654Z,10.35
2018-01-10T22:44:32.018Z,10.21
2018-01-10T22:47:00.396Z,10.10
2018-01-10T22:49:28.756Z,10.39
2018-01-10T22:51:58.068Z,10.51
2018-01-10T22:54:26.429Z,10.40
2018-01-10T22:56:55.216Z,10.51
2018-01-10T22:59:24.296Z,10.66
2018-01-10T23:01:52.654Z,10.61
2018-01-10T23:04:21.067Z,10.60
2018-01-10T23:06:50.047Z,10.62
2018-01-10T23:09:18.422Z,10.70
2018-01-10T23:11:46.782Z,10.27
2018-01-10T23:14:15.155Z,10.28
2018-01-10T23:16:43.534Z,10.42
2018-01-10T23:19:11.919Z,10.33
2018-01-10T23:21:40.295Z,10.60
2018-01-10T23:24:08.663Z,10.44
2018-01-10T23:26:37.164Z,10.39
2018-01-10T23:29:05.877Z,10.27
2018-01-10T23:31:34.340Z,10.34
2018-01-10T23:34:02.715Z,10.42
2018-01-10T23:36:31.085Z,10.45
2018-01-10T23:38:59.533Z,10.52
2018-01-10T23:41:27.899Z,10.47
2018-01-10T23:43:56.251Z,10.44
2018-01-10T23:46:24.632Z,9.18
2018-01-10T23:48:53.389Z,9.45
2018-01-10T23:51:21.871Z,9.92
2018-01-10T23:53:50.249Z,10.14
2018-01-10T23:56:18.603Z,10.09
2018-01-10T23:58:46.991Z,10.22
